Airport View

Enter AWOS ICAO identifier for current METAR.

ex. KFNL

KLZU 191856Z 29011G20KT 10SM CLR A3009 RMK AO2 SLPNO $

19 Jan 2020 19:04

Frequency: 132.275

Phone: 770-339-7753

Other Area AWOS: KWDR - KD73 - KPDK - KGVL

TAF KPDK 191730Z 1918/2018 32016G24KT P6SM SKC FM200400 32012G20KT P6SM SKC